createdAt,value
2023-01-18T00:01:02.441Z,100376.52
2023-01-18T00:03:33.519Z,100371.98
2023-01-18T00:06:02.122Z,100371.25
2023-01-18T00:08:30.997Z,100370.89
2023-01-18T00:11:19.157Z,100367.59
2023-01-18T00:13:47.782Z,100369.65
2023-01-18T00:16:18.744Z,100367.92
2023-01-18T00:18:54.439Z,100375.20
2023-01-18T00:21:22.015Z,100382.92
2023-01-18T00:23:49.572Z,100389.80
2023-01-18T00:26:16.731Z,100389.23
2023-01-18T00:28:43.772Z,100383.77
2023-01-18T00:31:19.821Z,100391.86
2023-01-18T00:33:49.109Z,100394.37
2023-01-18T00:36:17.718Z,100394.55
2023-01-18T00:38:51.807Z,100376.48
2023-01-18T00:41:20.145Z,100374.67
2023-01-18T00:43:47.469Z,100378.81
2023-01-18T00:46:17.673Z,100376.77
2023-01-18T00:48:45.013Z,100380.98
2023-01-18T00:51:15.474Z,100377.90
2023-01-18T00:53:44.939Z,100373.48
2023-01-18T00:56:15.544Z,100363.56
2023-01-18T00:58:43.291Z,100361.48
2023-01-18T01:01:11.602Z,100365.04
2023-01-18T01:03:58.063Z,100365.80
2023-01-18T01:06:44.968Z,100367.27
2023-01-18T01:09:17.458Z,100368.52
2023-01-18T01:12:06.819Z,100364.48
2023-01-18T01:14:55.081Z,100364.86
2023-01-18T01:17:40.860Z,100364.87
2023-01-18T01:20:28.493Z,100361.40
2023-01-18T01:23:14.230Z,100364.30
2023-01-18T01:26:00.565Z,100359.96
2023-01-18T01:28:28.303Z,100357.54
2023-01-18T01:31:00.741Z,100361.45
2023-01-18T01:33:29.593Z,100362.30
2023-01-18T01:35:58.954Z,100362.70
2023-01-18T01:38:26.764Z,100373.47
2023-01-18T01:41:06.868Z,100368.09
2023-01-18T01:43:48.180Z,100365.30
2023-01-18T01:46:48.692Z,100361.96
2023-01-18T01:49:40.441Z,100356.04
2023-01-18T01:52:15.551Z,100359.27
2023-01-18T01:54:50.374Z,100358.46
2023-01-18T01:57:22.067Z,100359.59
2023-01-18T02:00:02.411Z,100359.65
2023-01-18T02:02:40.940Z,100358.80
2023-01-18T02:05:10.642Z,100358.64
2023-01-18T02:07:37.847Z,100364.73
2023-01-18T02:10:06.378Z,100370.14
2023-01-18T02:12:36.735Z,100368.70
2023-01-18T02:15:04.647Z,100360.55
2023-01-18T02:17:38.778Z,100365.58
2023-01-18T02:20:24.641Z,100367.13
2023-01-18T02:23:10.787Z,100362.35
2023-01-18T02:25:50.280Z,100363.73
2023-01-18T02:28:37.849Z,100356.48
2023-01-18T02:31:15.236Z,100354.59
2023-01-18T02:34:19.984Z,100348.77
2023-01-18T02:37:02.505Z,100348.85
2023-01-18T02:39:58.634Z,100347.11
2023-01-18T02:42:47.447Z,100337.38
2023-01-18T02:45:44.448Z,100345.30
2023-01-18T02:48:13.196Z,100347.27
2023-01-18T02:50:40.840Z,100353.57
2023-01-18T02:53:12.735Z,100349.85
2023-01-18T02:55:53.114Z,100344.05
2023-01-18T02:58:48.243Z,100353.89
2023-01-18T03:01:27.216Z,100356.36
2023-01-18T03:03:59.348Z,100353.17
2023-01-18T03:06:29.466Z,100359.89
2023-01-18T03:08:58.947Z,100360.65
2023-01-18T03:12:08.895Z,100362.98
2023-01-18T03:14:58.423Z,100375.59
2023-01-18T03:17:36.477Z,100367.71
2023-01-18T03:20:10.184Z,100373.75
2023-01-18T03:22:57.628Z,100373.92
2023-01-18T03:25:39.040Z,100373.27
2023-01-18T03:28:28.726Z,100366.93
2023-01-18T03:31:18.494Z,100367.81
2023-01-18T03:33:52.247Z,100367.66
2023-01-18T03:36:27.883Z,100373.30
2023-01-18T03:39:01.359Z,100377.50
2023-01-18T03:41:33.402Z,100362.98
2023-01-18T03:44:06.944Z,100357.37
2023-01-18T03:46:34.892Z,100358.47
2023-01-18T03:49:02.504Z,100368.15
2023-01-18T03:51:48.636Z,100368.21
2023-01-18T03:54:24.020Z,100376.54
2023-01-18T03:57:03.303Z,100373.60
2023-01-18T03:59:35.549Z,100390.54
2023-01-18T04:02:05.641Z,100393.52
2023-01-18T04:04:32.907Z,100394.48
2023-01-18T04:07:00.524Z,100397.17
2023-01-18T04:09:27.778Z,100391.48
2023-01-18T04:11:54.768Z,100382.86
2023-01-18T04:14:22.344Z,100388.28
2023-01-18T04:16:49.442Z,100400.91
2023-01-18T04:19:17.569Z,100407.84
2023-01-18T04:21:44.790Z,100415.92
2023-01-18T04:24:12.152Z,100422.23
2023-01-18T04:26:39.317Z,100423.02
2023-01-18T04:29:06.451Z,100424.85
2023-01-18T04:31:33.485Z,100431.07
2023-01-18T04:34:00.744Z,100438.36
2023-01-18T04:36:28.587Z,100434.34
2023-01-18T04:38:56.151Z,100428.61
2023-01-18T04:41:24.182Z,100429.19
2023-01-18T04:43:51.190Z,100415.91
2023-01-18T04:46:18.285Z,100425.34
2023-01-18T04:48:50.092Z,100422.98
2023-01-18T04:51:17.393Z,100439.20
2023-01-18T04:53:45.378Z,100449.64
2023-01-18T04:56:12.982Z,100453.38
2023-01-18T04:58:40.109Z,100451.84
2023-01-18T05:01:09.253Z,100453.84
2023-01-18T05:03:38.462Z,100447.03
2023-01-18T05:06:10.766Z,100441.44
2023-01-18T05:08:41.180Z,100437.21
2023-01-18T05:11:13.311Z,100434.60
2023-01-18T05:13:41.557Z,100431.63
2023-01-18T05:16:14.655Z,100443.02
2023-01-18T05:18:42.550Z,100443.41
2023-01-18T05:21:09.718Z,100447.98
2023-01-18T05:23:36.820Z,100463.34
2023-01-18T05:26:04.972Z,100478.48
2023-01-18T05:28:32.008Z,100479.39
2023-01-18T05:30:59.051Z,100482.04
2023-01-18T05:33:26.024Z,100478.15
2023-01-18T05:35:55.700Z,100482.12
2023-01-18T05:38:23.685Z,100481.23
2023-01-18T05:40:53.449Z,100479.59
2023-01-18T05:43:22.734Z,100476.53
2023-01-18T05:45:49.972Z,100479.13
2023-01-18T05:48:18.206Z,100475.36
2023-01-18T05:50:47.441Z,100476.20
2023-01-18T05:53:20.305Z,100473.35
2023-01-18T05:56:01.473Z,100468.65
2023-01-18T05:58:29.358Z,100467.55
2023-01-18T06:00:57.786Z,100468.05
2023-01-18T06:03:25.691Z,100464.69
2023-01-18T06:05:52.864Z,100465.21
2023-01-18T06:08:21.041Z,100465.93
2023-01-18T06:10:55.820Z,100463.26
2023-01-18T06:13:24.251Z,100465.36
2023-01-18T06:15:52.275Z,100474.08
2023-01-18T06:18:19.307Z,100472.55
2023-01-18T06:20:46.346Z,100473.96
2023-01-18T06:23:13.470Z,100471.50
2023-01-18T06:25:40.468Z,100462.85
2023-01-18T06:28:07.740Z,100469.72
2023-01-18T06:30:34.948Z,100471.23
2023-01-18T06:33:06.928Z,100466.14
2023-01-18T06:35:35.009Z,100466.67
2023-01-18T06:38:04.275Z,100468.00
2023-01-18T06:40:31.936Z,100470.22
2023-01-18T06:42:59.226Z,100476.48
2023-01-18T06:45:27.089Z,100474.38
2023-01-18T06:47:54.101Z,100470.73
2023-01-18T06:50:22.635Z,100465.73
2023-01-18T06:52:49.759Z,100461.77
2023-01-18T06:55:16.899Z,100456.27
2023-01-18T06:57:43.916Z,100455.54
2023-01-18T07:00:12.419Z,100458.15
2023-01-18T07:02:39.536Z,100457.77
2023-01-18T07:05:06.847Z,100455.84
2023-01-18T07:07:33.904Z,100462.20
2023-01-18T07:10:00.917Z,100462.19
2023-01-18T07:12:27.935Z,100456.13
2023-01-18T07:14:55.046Z,100467.55
2023-01-18T07:17:22.096Z,100468.52
2023-01-18T07:19:49.084Z,100468.80
2023-01-18T07:22:16.085Z,100467.66
2023-01-18T07:24:43.142Z,100470.27
2023-01-18T07:27:10.230Z,100471.52
2023-01-18T07:29:37.272Z,100475.66
2023-01-18T07:32:04.628Z,100473.47
2023-01-18T07:34:31.988Z,100466.91
2023-01-18T07:36:59.100Z,100469.48
2023-01-18T07:39:26.206Z,100468.71
2023-01-18T07:41:53.231Z,100473.88
2023-01-18T07:44:20.206Z,100479.75
2023-01-18T07:46:47.384Z,100484.96
2023-01-18T07:49:15.776Z,100489.24
2023-01-18T07:51:42.934Z,100497.11
2023-01-18T07:54:09.980Z,100499.89
2023-01-18T07:56:37.777Z,100501.58
2023-01-18T07:59:04.944Z,100511.89
2023-01-18T08:01:32.620Z,100513.98
2023-01-18T08:03:59.758Z,100509.67
2023-01-18T08:06:27.470Z,100500.77
2023-01-18T08:08:56.001Z,100499.55
2023-01-18T08:11:23.749Z,100490.34
2023-01-18T08:13:52.796Z,100480.76
2023-01-18T08:16:20.265Z,100477.20
2023-01-18T08:18:50.952Z,100471.04
2023-01-18T08:21:18.206Z,100472.48
2023-01-18T08:23:45.244Z,100470.09
2023-01-18T08:26:13.939Z,100467.63
2023-01-18T08:28:41.786Z,100463.67
2023-01-18T08:31:15.777Z,100458.61
2023-01-18T08:33:49.030Z,100461.55
2023-01-18T08:36:19.018Z,100457.53
2023-01-18T08:38:51.417Z,100457.89
2023-01-18T08:41:19.605Z,100452.70
2023-01-18T08:43:51.215Z,100456.73
2023-01-18T08:46:18.919Z,100455.93
2023-01-18T08:48:50.628Z,100453.44
2023-01-18T08:51:22.085Z,100454.25
2023-01-18T08:53:54.704Z,100456.02
2023-01-18T08:56:22.013Z,100454.67
2023-01-18T08:58:49.286Z,100454.67
2023-01-18T09:01:16.612Z,100462.38
2023-01-18T09:03:45.118Z,100468.65
2023-01-18T09:06:13.168Z,100469.02
2023-01-18T09:08:40.515Z,100469.98
2023-01-18T09:11:10.460Z,100464.80
2023-01-18T09:13:54.629Z,100458.67
2023-01-18T09:16:27.077Z,100457.48
2023-01-18T09:18:56.584Z,100456.80
2023-01-18T09:21:24.356Z,100460.12
2023-01-18T09:23:51.489Z,100458.10
2023-01-18T09:26:21.225Z,100458.56
2023-01-18T09:28:52.515Z,100458.28
2023-01-18T09:31:22.263Z,100454.55
2023-01-18T09:33:53.611Z,100461.26
2023-01-18T09:36:26.784Z,100460.21
2023-01-18T09:38:55.525Z,100460.48
2023-01-18T09:41:22.479Z,100459.82
2023-01-18T09:43:54.000Z,100456.61
2023-01-18T09:46:23.289Z,100454.69
2023-01-18T09:48:56.152Z,100452.04
2023-01-18T09:51:28.477Z,100451.48
2023-01-18T09:54:23.700Z,100451.79
2023-01-18T09:57:15.530Z,100445.04
2023-01-18T09:59:55.598Z,100446.04
2023-01-18T10:02:32.492Z,100449.28
2023-01-18T10:05:05.437Z,100447.93
2023-01-18T10:07:36.399Z,100441.17
2023-01-18T10:10:05.067Z,100436.27
2023-01-18T10:12:45.649Z,100432.51
2023-01-18T10:15:20.485Z,100428.33
2023-01-18T10:17:50.115Z,100428.06
2023-01-18T10:20:34.104Z,100434.92
2023-01-18T10:23:23.606Z,100440.86
2023-01-18T10:25:56.437Z,100435.25
2023-01-18T10:28:39.300Z,100432.53
2023-01-18T10:31:20.916Z,100432.98
2023-01-18T10:33:53.795Z,100428.55
2023-01-18T10:36:26.476Z,100432.01
2023-01-18T10:38:55.723Z,100438.79
2023-01-18T10:41:32.419Z,100440.67
2023-01-18T10:43:59.555Z,100457.30
2023-01-18T10:46:26.680Z,100462.84
2023-01-18T10:48:57.418Z,100467.69
2023-01-18T10:51:32.448Z,100461.42
2023-01-18T10:53:59.529Z,100460.22
2023-01-18T10:56:27.585Z,100456.70
2023-01-18T10:59:00.330Z,100459.14
2023-01-18T11:01:29.009Z,100445.39
2023-01-18T11:04:06.244Z,100433.70
2023-01-18T11:06:48.718Z,100431.90
2023-01-18T11:09:34.879Z,100416.08
2023-01-18T11:12:35.168Z,100413.98
2023-01-18T11:15:14.718Z,100410.65
2023-01-18T11:17:58.896Z,100407.08
2023-01-18T11:20:48.087Z,100402.90
2023-01-18T11:23:23.474Z,100395.58
2023-01-18T11:26:13.943Z,100389.09
2023-01-18T11:28:46.070Z,100389.86
2023-01-18T11:31:16.290Z,100393.52
2023-01-18T11:33:52.394Z,100397.11
2023-01-18T11:36:22.438Z,100398.14
2023-01-18T11:38:49.557Z,100397.61
2023-01-18T11:41:23.629Z,100402.92
2023-01-18T11:44:06.929Z,100400.05
2023-01-18T11:46:43.024Z,100406.52
2023-01-18T11:49:10.022Z,100415.00
2023-01-18T11:51:56.228Z,100417.11
2023-01-18T11:55:01.120Z,100421.70
2023-01-18T11:57:30.590Z,100414.73
2023-01-18T12:00:00.978Z,100410.48
2023-01-18T12:03:04.968Z,100410.92
2023-01-18T12:05:55.313Z,100408.18
2023-01-18T12:08:50.252Z,100411.02
2023-01-18T12:11:49.084Z,100410.14
2023-01-18T12:14:45.198Z,100404.43
2023-01-18T12:17:35.346Z,100396.50
2023-01-18T12:20:40.768Z,100407.59
2023-01-18T12:23:13.660Z,100406.80
2023-01-18T12:25:49.160Z,100410.29
2023-01-18T12:28:48.422Z,100408.13
2023-01-18T12:31:22.333Z,100414.90
2023-01-18T12:34:06.643Z,100426.00
2023-01-18T12:36:47.226Z,100424.31
2023-01-18T12:39:54.144Z,100422.39
2023-01-18T12:42:30.371Z,100424.64
2023-01-18T12:45:15.935Z,100426.11
2023-01-18T12:47:59.948Z,100422.66
2023-01-18T12:50:39.405Z,100426.79
2023-01-18T12:53:15.383Z,100429.00
2023-01-18T12:55:46.523Z,100426.13
2023-01-18T12:58:26.822Z,100425.34
2023-01-18T13:01:07.762Z,100428.80
2023-01-18T13:03:44.515Z,100430.64
2023-01-18T13:06:13.528Z,100429.78
2023-01-18T13:09:26.280Z,100429.17
2023-01-18T13:11:54.538Z,100429.84
2023-01-18T13:14:33.799Z,100425.41
2023-01-18T13:18:23.827Z,100423.98
2023-01-18T13:21:01.227Z,100426.79
2023-01-18T13:23:54.171Z,100433.98
2023-01-18T13:26:21.612Z,100435.80
2023-01-18T13:28:49.014Z,100434.71
2023-01-18T13:31:16.589Z,100437.50
2023-01-18T13:33:48.471Z,100437.52
2023-01-18T13:36:20.283Z,100436.01
2023-01-18T13:39:14.068Z,100434.83
2023-01-18T13:42:04.275Z,100437.37
2023-01-18T13:44:37.646Z,100441.81
2023-01-18T13:47:47.103Z,100451.40
2023-01-18T13:50:34.717Z,100447.89
2023-01-18T13:53:14.235Z,100447.77
2023-01-18T13:55:48.836Z,100449.92
2023-01-18T13:58:27.610Z,100450.67
2023-01-18T14:00:58.785Z,100450.36
2023-01-18T14:03:31.773Z,100449.35
2023-01-18T14:06:09.556Z,100448.50
2023-01-18T14:08:39.985Z,100455.27
2023-01-18T14:11:10.851Z,100456.69
2023-01-18T14:13:50.170Z,100457.20
2023-01-18T14:16:21.562Z,100455.63
2023-01-18T14:18:52.243Z,100455.36
2023-01-18T14:21:55.518Z,100457.63
2023-01-18T14:24:50.926Z,100459.36
2023-01-18T14:27:22.582Z,100458.80
2023-01-18T14:30:04.606Z,100463.27
2023-01-18T14:32:38.840Z,100467.16
2023-01-18T14:35:25.586Z,100469.77
2023-01-18T14:37:54.300Z,100471.03
2023-01-18T14:40:26.875Z,100473.45
2023-01-18T14:43:05.690Z,100470.00
2023-01-18T14:45:39.306Z,100472.25
2023-01-18T14:48:12.898Z,100478.27
2023-01-18T14:50:48.932Z,100486.72
2023-01-18T14:53:21.717Z,100488.30
2023-01-18T14:56:15.166Z,100485.88
2023-01-18T14:58:51.192Z,100490.52
2023-01-18T15:01:36.523Z,100489.83
2023-01-18T15:04:07.295Z,100492.81
2023-01-18T15:06:47.172Z,100496.27
2023-01-18T15:09:15.302Z,100492.02
2023-01-18T15:11:44.858Z,100488.48
2023-01-18T15:14:25.743Z,100491.61
2023-01-18T15:16:56.131Z,100491.48
2023-01-18T15:19:44.530Z,100495.97
2023-01-18T15:22:15.565Z,100497.34
2023-01-18T15:24:45.599Z,100497.83
2023-01-18T15:27:15.813Z,100497.81
2023-01-18T15:29:48.980Z,100492.46
2023-01-18T15:32:21.073Z,100494.75
2023-01-18T15:34:50.860Z,100492.30
2023-01-18T15:37:25.298Z,100489.12
2023-01-18T15:40:07.060Z,100479.94
2023-01-18T15:42:47.263Z,100479.40
2023-01-18T15:45:21.092Z,100479.30
2023-01-18T15:47:51.297Z,100483.10
2023-01-18T15:50:20.942Z,100483.19
2023-01-18T15:53:02.191Z,100491.31
2023-01-18T15:55:48.211Z,100492.63
2023-01-18T15:58:43.023Z,100499.38
2023-01-18T16:01:13.369Z,100506.50
2023-01-18T16:03:53.967Z,100511.02
2023-01-18T16:06:21.272Z,100514.80
2023-01-18T16:09:12.671Z,100519.91
2023-01-18T16:11:54.810Z,100523.66
2023-01-18T16:14:28.315Z,100524.54
2023-01-18T16:17:07.036Z,100516.04
2023-01-18T16:19:43.667Z,100519.41
2023-01-18T16:22:34.179Z,100522.40
2023-01-18T16:25:10.709Z,100520.80
2023-01-18T16:27:50.593Z,100523.02
2023-01-18T16:30:25.639Z,100524.77
2023-01-18T16:32:53.457Z,100524.42
2023-01-18T16:35:22.977Z,100526.66
2023-01-18T16:37:50.743Z,100525.58
2023-01-18T16:40:23.407Z,100527.50
2023-01-18T16:43:05.831Z,100532.08
2023-01-18T16:45:38.216Z,100534.34
2023-01-18T16:48:06.356Z,100534.63
2023-01-18T16:50:33.541Z,100538.36
2023-01-18T16:53:00.608Z,100542.45
2023-01-18T16:55:27.697Z,100541.73
2023-01-18T16:57:54.772Z,100540.48
2023-01-18T17:00:26.252Z,100544.08
2023-01-18T17:02:53.714Z,100545.10
2023-01-18T17:05:21.065Z,100552.13
2023-01-18T17:07:48.240Z,100552.17
2023-01-18T17:10:29.270Z,100547.92
2023-01-18T17:12:56.418Z,100544.58
2023-01-18T17:15:23.603Z,100538.94
2023-01-18T17:17:50.645Z,100543.98
2023-01-18T17:20:21.192Z,100539.33
2023-01-18T17:22:50.658Z,100551.27
2023-01-18T17:25:18.681Z,100549.27
2023-01-18T17:27:45.961Z,100561.63
2023-01-18T17:30:16.283Z,100563.12
2023-01-18T17:32:43.605Z,100559.70
2023-01-18T17:35:11.474Z,100566.55
2023-01-18T17:40:19.554Z,100577.18
2023-01-18T17:42:50.071Z,100578.13
2023-01-18T17:45:17.509Z,100578.95
2023-01-18T17:47:44.909Z,100570.27
2023-01-18T17:50:16.651Z,100567.44
2023-01-18T17:52:43.726Z,100572.79
2023-01-18T17:55:14.346Z,100573.23
2023-01-18T17:57:43.236Z,100571.13
2023-01-18T18:00:13.910Z,100560.88
2023-01-18T18:02:41.557Z,100562.86
2023-01-18T18:05:10.192Z,100565.54
2023-01-18T18:07:37.403Z,100564.67
2023-01-18T18:10:05.976Z,100569.23
2023-01-18T18:12:35.008Z,100569.03
2023-01-18T18:15:03.109Z,100559.23
2023-01-18T18:17:32.118Z,100550.95
2023-01-18T18:20:00.286Z,100548.63
2023-01-18T18:22:28.026Z,100551.95
2023-01-18T18:24:55.329Z,100553.67
2023-01-18T18:27:24.772Z,100545.05
2023-01-18T18:29:54.311Z,100548.05
2023-01-18T18:32:21.365Z,100545.06
2023-01-18T18:34:48.614Z,100550.91
2023-01-18T18:37:16.327Z,100555.98
2023-01-18T18:39:43.827Z,100553.66
2023-01-18T18:42:11.488Z,100544.98
2023-01-18T18:44:38.819Z,100541.96
2023-01-18T18:47:07.670Z,100538.20
2023-01-18T18:49:35.228Z,100532.52
2023-01-18T18:52:02.466Z,100532.98
2023-01-18T18:54:29.773Z,100523.10
2023-01-18T18:56:57.394Z,100522.77
2023-01-18T18:59:25.956Z,100515.83
2023-01-18T19:01:56.058Z,100512.91
2023-01-18T19:04:23.402Z,100519.55
2023-01-18T19:06:51.706Z,100517.67
2023-01-18T19:09:20.357Z,100512.30
2023-01-18T19:11:55.099Z,100512.54
2023-01-18T19:14:26.948Z,100513.39
2023-01-18T19:16:54.684Z,100509.87
2023-01-18T19:19:24.293Z,100510.61
2023-01-18T19:21:53.661Z,100505.47
2023-01-18T19:24:21.319Z,100502.84
2023-01-18T19:26:48.685Z,100507.75
2023-01-18T19:29:16.863Z,100515.52
2023-01-18T19:31:44.225Z,100516.37
2023-01-18T19:34:11.833Z,100519.91
2023-01-18T19:36:39.418Z,100518.92
2023-01-18T19:39:09.338Z,100519.38
2023-01-18T19:41:42.997Z,100529.54
2023-01-18T19:44:14.318Z,100530.01
2023-01-18T19:46:41.608Z,100530.52
2023-01-18T19:49:09.701Z,100541.27
2023-01-18T19:51:41.288Z,100538.23
2023-01-18T19:54:11.698Z,100528.70
2023-01-18T19:56:39.121Z,100522.50
2023-01-18T19:59:08.329Z,100531.70
2023-01-18T20:01:37.290Z,100531.34
2023-01-18T20:04:06.639Z,100542.02
2023-01-18T20:06:35.521Z,100543.66
2023-01-18T20:09:04.034Z,100541.86
2023-01-18T20:11:33.054Z,100536.90
2023-01-18T20:14:00.802Z,100534.47
2023-01-18T20:16:28.462Z,100542.02
2023-01-18T20:18:56.325Z,100552.30
2023-01-18T20:21:24.040Z,100555.14
2023-01-18T20:23:51.532Z,100536.08
2023-01-18T20:26:31.262Z,100525.52
2023-01-18T20:29:07.187Z,100523.98
2023-01-18T20:31:36.584Z,100518.19
2023-01-18T20:34:04.979Z,100524.71
2023-01-18T20:36:35.128Z,100526.50
2023-01-18T20:39:04.257Z,100535.51
2023-01-18T20:41:31.727Z,100543.14
2023-01-18T20:43:59.031Z,100542.08
2023-01-18T20:46:26.862Z,100538.64
2023-01-18T20:48:54.223Z,100541.64
2023-01-18T20:51:22.410Z,100541.18
2023-01-18T20:53:49.904Z,100539.48
2023-01-18T20:56:28.819Z,100537.76
2023-01-18T20:58:58.517Z,100536.20
2023-01-18T21:01:32.013Z,100537.98
2023-01-18T21:04:02.229Z,100534.13
2023-01-18T21:06:30.597Z,100537.17
2023-01-18T21:08:59.637Z,100538.06
2023-01-18T21:11:27.780Z,100534.95
2023-01-18T21:13:56.954Z,100537.14
2023-01-18T21:16:24.963Z,100540.02
2023-01-18T21:18:56.708Z,100538.87
2023-01-18T21:21:27.611Z,100535.90
2023-01-18T21:23:55.340Z,100525.42
2023-01-18T21:26:23.099Z,100531.35
2023-01-18T21:28:50.487Z,100530.16
2023-01-18T21:31:18.359Z,100530.67
2023-01-18T21:33:46.442Z,100527.65
2023-01-18T21:36:17.772Z,100525.52
2023-01-18T21:38:45.135Z,100526.63
2023-01-18T21:41:31.751Z,100526.27
2023-01-18T21:44:17.736Z,100520.61
2023-01-18T21:46:47.036Z,100521.14
2023-01-18T21:49:47.432Z,100524.31
2023-01-18T21:52:38.386Z,100516.15
2023-01-18T21:55:06.298Z,100521.58
2023-01-18T21:57:33.846Z,100527.21
2023-01-18T22:00:01.071Z,100534.91
2023-01-18T22:02:28.601Z,100530.80
2023-01-18T22:05:03.640Z,100535.71
2023-01-18T22:07:34.245Z,100539.54
2023-01-18T22:10:07.007Z,100533.65
2023-01-18T22:12:36.333Z,100542.55
2023-01-18T22:15:05.322Z,100547.66
2023-01-18T22:17:32.516Z,100545.52
2023-01-18T22:20:00.490Z,100542.90
2023-01-18T22:22:28.361Z,100537.79
2023-01-18T22:24:56.985Z,100544.55
2023-01-18T22:27:24.345Z,100555.94
2023-01-18T22:29:52.116Z,100565.52
2023-01-18T22:32:19.711Z,100572.84
2023-01-18T22:34:46.823Z,100583.81
2023-01-18T22:37:14.173Z,100588.27
2023-01-18T22:39:41.256Z,100581.38
2023-01-18T22:42:08.405Z,100582.97
2023-01-18T22:44:35.704Z,100580.70
2023-01-18T22:47:03.115Z,100586.50
2023-01-18T22:49:30.234Z,100581.36
2023-01-18T22:51:57.279Z,100568.50
2023-01-18T22:54:24.432Z,100561.10
2023-01-18T22:56:51.638Z,100558.37
2023-01-18T22:59:18.749Z,100557.89
2023-01-18T23:01:46.003Z,100554.27
2023-01-18T23:04:13.143Z,100559.95
2023-01-18T23:06:46.991Z,100561.38
2023-01-18T23:09:16.075Z,100556.38
2023-01-18T23:11:45.465Z,100550.55
2023-01-18T23:14:31.201Z,100548.58
2023-01-18T23:17:17.030Z,100548.21
2023-01-18T23:19:44.219Z,100550.73
2023-01-18T23:22:11.557Z,100544.19
2023-01-18T23:24:39.682Z,100545.98
2023-01-18T23:27:12.174Z,100552.51
2023-01-18T23:29:39.389Z,100556.67
2023-01-18T23:32:07.741Z,100557.35
2023-01-18T23:34:35.357Z,100560.13
2023-01-18T23:37:02.638Z,100569.87
2023-01-18T23:39:48.495Z,100566.73
2023-01-18T23:42:34.316Z,100556.33
2023-01-18T23:45:20.355Z,100549.95
2023-01-18T23:48:06.286Z,100556.11
2023-01-18T23:50:51.918Z,100556.14
2023-01-18T23:53:37.524Z,100556.35
2023-01-18T23:56:04.839Z,100566.95
2023-01-18T23:58:32.046Z,100573.52
